Time;durP1;ratioP1;P1;durP2;ratioP2;P2;SDS_P1;SDS_P2;PMS_P1;PMS_P2;Temp;Humidity;BMP_temperature;BMP_pressure;BME280_temperature;BME280_humidity;BME280_pressure;Samples;Min_cycle;Max_cycle;Signal;HPM_P1;HPM_P2
2023/01/15 00:01:22;;;;;;;6.43;0.80;;;;;;;4.82;100.00;99801.16;5031445;28;20024;-89
2023/01/15 00:03:48;;;;;;;9.10;1.10;;;;;;;4.85;100.00;99810.47;5030321;28;20596;-89
2023/01/15 00:06:15;;;;;;;8.63;1.00;;;;;;;4.79;100.00;99801.66;5032309;28;20132;-89
2023/01/15 00:08:41;;;;;;;10.60;0.98;;;;;;;4.86;100.00;99812.09;5016980;28;20080;-88
2023/01/15 00:11:06;;;;;;;7.20;0.90;;;;;;;4.87;100.00;99820.84;5031675;28;20076;-89
2023/01/15 00:13:31;;;;;;;9.70;1.07;;;;;;;4.78;100.00;99805.34;5031329;28;20025;-90
2023/01/15 00:16:15;;;;;;;9.03;1.00;;;;;;;4.80;100.00;99819.19;5051750;28;20025;-89
2023/01/15 00:18:40;;;;;;;6.95;1.10;;;;;;;4.76;100.00;99807.44;5051416;28;20147;-89
2023/01/15 00:21:09;;;;;;;12.77;0.90;;;;;;;4.73;100.00;99797.28;5040793;28;20104;-89
2023/01/15 00:29:05;;;;;;;11.90;1.55;;;;;;;4.79;100.00;99787.56;5031431;28;20040;-89
2023/01/15 00:31:34;;;;;;;14.40;1.57;;;;;;;4.75;100.00;99783.81;5031392;28;20029;-89
2023/01/15 00:33:59;;;;;;;9.55;1.58;;;;;;;4.79;100.00;99796.34;5029693;28;20041;-89
2023/01/15 00:36:25;;;;;;;15.25;1.40;;;;;;;4.75;100.00;99789.91;5013346;28;20481;-89
2023/01/15 00:38:51;;;;;;;5.77;1.30;;;;;;;4.75;100.00;99786.47;5029745;28;20025;-89
2023/01/15 00:41:16;;;;;;;12.03;1.43;;;;;;;4.70;100.00;99781.84;5031184;28;20021;-89
2023/01/15 00:43:42;;;;;;;9.37;1.00;;;;;;;4.73;100.00;99796.50;5033904;28;20299;-89
2023/01/15 00:46:08;;;;;;;9.67;1.20;;;;;;;4.67;100.00;99798.25;5030707;28;20503;-89
2023/01/15 00:48:34;;;;;;;8.32;1.02;;;;;;;4.74;100.00;99819.34;5030285;28;20025;-89
2023/01/15 00:51:00;;;;;;;11.02;0.90;;;;;;;4.63;100.00;99815.75;5031027;28;20025;-89
2023/01/15 00:53:25;;;;;;;5.17;1.20;;;;;;;4.65;100.00;99813.66;5028873;28;20052;-89
2023/01/15 00:55:52;;;;;;;8.40;0.90;;;;;;;4.66;100.00;99818.69;5031315;28;20420;-89
2023/01/15 00:58:17;;;;;;;8.55;0.93;;;;;;;4.50;100.00;99804.38;5048926;28;20025;-89
2023/01/15 01:00:42;;;;;;;13.10;1.10;;;;;;;4.69;100.00;99828.84;5052899;28;20032;-89
2023/01/15 01:03:08;;;;;;;9.83;1.07;;;;;;;4.62;100.00;99822.09;5039349;28;20037;-89
2023/01/15 01:05:33;;;;;;;11.32;1.48;;;;;;;4.64;100.00;99828.75;5021778;28;20044;-89
2023/01/15 01:07:59;;;;;;;8.83;1.00;;;;;;;4.66;100.00;99823.19;5048356;28;20033;-87
2023/01/15 01:10:25;;;;;;;6.13;0.80;;;;;;;4.51;100.00;99813.16;5057530;28;20040;-89
2023/01/15 01:12:52;;;;;;;8.60;0.77;;;;;;;4.62;100.00;99830.84;5055441;28;20043;-89
2023/01/15 01:15:21;;;;;;;13.35;1.45;;;;;;;4.59;100.00;99815.41;5056632;28;20024;-89
2023/01/15 01:17:46;;;;;;;6.50;0.82;;;;;;;4.62;100.00;99836.16;5042119;28;20064;-89
2023/01/15 01:20:13;;;;;;;12.50;1.17;;;;;;;4.60;100.00;99830.28;5034105;28;20515;-89
2023/01/15 01:22:39;;;;;;;11.23;2.38;;;;;;;4.60;100.00;99824.97;5031738;28;20029;-89
2023/01/15 01:25:05;;;;;;;9.70;0.97;;;;;;;4.53;100.00;99819.84;5024362;28;20037;-89
2023/01/15 01:27:30;;;;;;;7.15;1.25;;;;;;;4.54;100.00;99825.97;5050231;28;20051;-89
2023/01/15 01:29:55;;;;;;;5.03;0.70;;;;;;;4.55;100.00;99822.25;5052366;28;20103;-89
2023/01/15 01:32:21;;;;;;;5.77;1.03;;;;;;;4.47;100.00;99804.91;5039350;28;20499;-89
2023/01/15 01:34:48;;;;;;;7.07;0.90;;;;;;;4.48;100.00;99806.47;5027649;28;20108;-89
2023/01/15 01:37:14;;;;;;;16.85;1.23;;;;;;;4.47;100.00;99804.09;5011814;28;20022;-88
2023/01/15 01:39:39;;;;;;;8.83;0.97;;;;;;;4.51;100.00;99821.13;5016837;28;20036;-89
2023/01/15 01:42:11;;;;;;;7.60;1.02;;;;;;;4.50;100.00;99822.97;5030282;28;20526;-89
2023/01/15 01:44:36;;;;;;;8.23;0.93;;;;;;;4.55;100.00;99838.97;5031186;28;20076;-89
2023/01/15 01:47:06;;;;;;;6.70;0.77;;;;;;;4.56;100.00;99839.78;5013338;28;20451;-89
2023/01/15 01:49:33;;;;;;;13.43;1.00;;;;;;;4.54;100.00;99833.91;5034724;28;20017;-90
2023/01/15 01:52:02;;;;;;;7.88;1.10;;;;;;;4.52;100.00;99830.69;5042964;28;20084;-89
2023/01/15 01:54:31;;;;;;;10.75;1.30;;;;;;;4.38;100.00;99791.22;5036078;28;20036;-89
2023/01/15 01:56:56;;;;;;;10.30;0.80;;;;;;;4.57;100.00;99822.78;5050383;28;20047;-89
2023/01/15 01:59:25;;;;;;;9.37;1.10;;;;;;;4.53;100.00;99827.00;5050630;28;20025;-89
2023/01/15 02:01:51;;;;;;;12.02;1.52;;;;;;;4.56;100.00;99831.84;5037029;28;20017;-89
2023/01/15 02:04:20;;;;;;;10.80;0.93;;;;;;;4.48;100.00;99830.34;5031395;28;20021;-89
2023/01/15 02:06:46;;;;;;;6.40;1.20;;;;;;;4.48;100.00;99818.94;5034859;28;20022;-89
2023/01/15 02:09:12;;;;;;;8.97;0.93;;;;;;;4.49;100.00;99818.69;5034195;28;20192;-89
2023/01/15 02:11:38;;;;;;;9.57;0.90;;;;;;;4.52;100.00;99841.31;5034368;28;20044;-89
2023/01/15 02:14:15;;;;;;;9.90;2.07;;;;;;;4.51;100.00;99845.00;5033639;28;20025;-89
2023/01/15 02:16:52;;;;;;;13.35;1.20;;;;;;;4.50;100.00;99844.19;5034844;28;20025;-89
2023/01/15 02:19:45;;;;;;;8.70;0.93;;;;;;;4.46;100.00;99843.09;5034227;28;20491;-89
2023/01/15 02:22:42;;;;;;;8.23;0.70;;;;;;;4.38;100.00;99830.22;5016182;28;20615;-88
2023/01/15 02:25:26;;;;;;;17.42;1.45;;;;;;;4.44;100.00;99833.75;5026255;28;20502;-89
2023/01/15 02:28:00;;;;;;;7.20;1.13;;;;;;;4.40;100.00;99826.25;5054935;28;20108;-89
2023/01/15 02:38:16;;;;;;;5.70;0.93;;;;;;;4.46;100.00;99813.09;5768955;22;20810;-88
2023/01/15 02:40:43;;;;;;;10.27;1.00;;;;;;;4.39;100.00;99819.34;5059210;28;20012;-87
2023/01/15 02:43:13;;;;;;;10.35;1.10;;;;;;;4.26;100.00;99789.72;5076159;28;20093;-87
2023/01/15 02:45:43;;;;;;;9.13;0.80;;;;;;;4.21;100.00;99807.13;5036348;28;20036;-87
2023/01/15 02:48:12;;;;;;;12.73;1.00;;;;;;;4.19;100.00;99805.78;5052841;28;20127;-87
2023/01/15 02:51:12;;;;;;;9.53;1.33;;;;;;;4.25;100.00;99799.50;5053573;28;20035;-88
2023/01/15 02:53:42;;;;;;;7.93;1.00;;;;;;;4.10;100.00;99781.50;5031197;28;20303;-87
2023/01/15 02:56:30;;;;;;;8.88;1.45;;;;;;;4.15;100.00;99802.78;5052113;28;20126;-87
2023/01/15 02:58:59;;;;;;;8.43;0.73;;;;;;;4.16;100.00;99795.66;5032250;28;20083;-88
2023/01/15 03:01:35;;;;;;;11.02;1.27;;;;;;;4.17;100.00;99798.03;5052862;28;20033;-88
2023/01/15 03:04:25;;;;;;;11.75;0.98;;;;;;;4.14;100.00;99797.72;5053004;28;20377;-87
2023/01/15 03:07:05;;;;;;;6.07;0.60;;;;;;;4.13;100.00;99809.38;5034031;28;20037;-88
2023/01/15 03:09:31;;;;;;;10.30;1.10;;;;;;;4.14;100.00;99817.09;5033416;28;20715;-88
2023/01/15 03:13:00;;;;;;;7.30;1.02;;;;;;;4.14;100.00;99806.47;5037462;28;20025;-87
2023/01/15 03:16:33;;;;;;;7.35;0.98;;;;;;;4.09;100.00;99804.56;5004562;28;20123;-87
2023/01/15 03:18:10;;;;;;;6.22;0.80;;;;;;;4.11;100.00;99803.50;5052912;28;20066;-87
2023/01/15 03:20:40;;;;;;;7.70;1.45;;;;;;;4.10;100.00;99813.31;5541874;22;20045;-87
2023/01/15 03:23:11;;;;;;;7.87;0.83;;;;;;;4.15;100.00;99812.59;5013168;28;20034;-87
2023/01/15 03:25:43;;;;;;;7.77;0.80;;;;;;;4.09;100.00;99791.28;5012452;28;20313;-87
2023/01/15 03:28:10;;;;;;;8.90;1.00;;;;;;;4.06;100.00;99783.03;5011866;28;20418;-86
2023/01/15 03:30:36;;;;;;;10.45;1.10;;;;;;;4.09;100.00;99788.66;5012596;28;20049;-86
2023/01/15 03:33:02;;;;;;;12.77;1.10;;;;;;;4.17;100.00;99790.09;5010924;28;20021;-86
2023/01/15 03:35:58;;;;;;;7.47;1.03;;;;;;;4.18;100.00;99790.91;5011404;28;20362;-86
2023/01/15 03:38:29;;;;;;;8.95;1.00;;;;;;;4.06;100.00;99767.13;4982406;28;20528;-87
2023/01/15 03:41:26;;;;;;;9.02;1.00;;;;;;;4.17;100.00;99794.59;4994429;28;20029;-86
2023/01/15 03:44:09;;;;;;;8.45;0.95;;;;;;;4.15;100.00;99791.38;5012674;28;20040;-87
2023/01/15 03:47:02;;;;;;;10.38;1.40;;;;;;;4.12;100.00;99795.31;5011183;28;20052;-86
2023/01/15 03:49:30;;;;;;;12.10;1.03;;;;;;;4.08;100.00;99797.63;4988885;28;20113;-85
2023/01/15 03:52:25;;;;;;;13.63;1.20;;;;;;;4.07;100.00;99805.84;4993887;28;20660;-85
2023/01/15 03:55:02;;;;;;;11.15;1.13;;;;;;;4.08;100.00;99794.19;5013966;28;20038;-85
2023/01/15 03:57:44;;;;;;;14.57;1.17;;;;;;;4.06;100.00;99794.41;5017003;28;20033;-85
2023/01/15 04:00:26;;;;;;;12.43;1.23;;;;;;;4.11;100.00;99795.56;5034824;28;20010;-84
2023/01/15 04:02:55;;;;;;;8.25;1.13;;;;;;;4.12;100.00;99803.25;5017094;28;20014;-85
2023/01/15 04:05:24;;;;;;;8.67;0.70;;;;;;;4.07;100.00;99787.28;5035186;28;20024;-85
2023/01/15 04:07:53;;;;;;;14.27;1.10;;;;;;;4.16;100.00;99793.00;5019656;28;20788;-85
2023/01/15 04:10:18;;;;;;;7.75;0.93;;;;;;;4.18;100.00;99790.91;5018375;28;20044;-85
2023/01/15 04:12:43;;;;;;;15.20;1.20;;;;;;;4.19;100.00;99793.31;5023678;28;20046;-86
2023/01/15 04:15:11;;;;;;;9.15;1.00;;;;;;;4.18;100.00;99801.53;5013844;28;20038;-85
2023/01/15 04:17:36;;;;;;;8.47;1.00;;;;;;;4.05;100.00;99787.50;5013621;28;20124;-86
2023/01/15 04:20:01;;;;;;;10.50;1.10;;;;;;;4.07;100.00;99800.53;5010585;28;20077;-86
2023/01/15 04:22:27;;;;;;;13.13;1.00;;;;;;;3.90;100.00;99774.00;5012856;28;20037;-86
2023/01/15 04:24:54;;;;;;;14.27;0.97;;;;;;;4.06;100.00;99798.94;4995979;28;20500;-85
2023/01/15 04:27:19;;;;;;;10.75;0.85;;;;;;;3.98;100.00;99794.81;5010550;28;20402;-85
2023/01/15 04:29:44;;;;;;;13.13;1.33;;;;;;;3.98;100.00;99788.72;5012240;28;20033;-85
2023/01/15 04:32:10;;;;;;;11.80;1.20;;;;;;;3.93;100.00;99776.19;4994369;28;20583;-86
2023/01/15 04:34:35;;;;;;;13.37;1.10;;;;;;;3.96;100.00;99778.34;5011954;28;20093;-87
2023/01/15 04:37:01;;;;;;;10.53;0.90;;;;;;;3.91;100.00;99775.59;5008448;28;20080;-86
2023/01/15 04:39:26;;;;;;;8.67;0.80;;;;;;;3.71;100.00;99776.84;5009684;28;20029;-85
2023/01/15 04:44:36;;;;;;;10.18;0.90;;;;;;;3.79;100.00;99800.34;5012374;28;20162;-86
2023/01/15 04:47:02;;;;;;;5.47;0.82;;;;;;;3.70;100.00;99793.00;4994797;28;20030;-86
2023/01/15 04:49:27;;;;;;;12.47;1.00;;;;;;;3.72;100.00;99815.56;5010288;28;20036;-86
2023/01/15 04:51:52;;;;;;;7.70;1.23;;;;;;;3.76;100.00;99797.34;5012069;28;20400;-86
2023/01/15 04:54:19;;;;;;;10.05;0.90;;;;;;;3.86;100.00;99812.63;5011866;28;20040;-86
2023/01/15 04:56:53;;;;;;;11.83;0.80;;;;;;;3.82;100.00;99817.59;4994416;28;20482;-85
2023/01/15 04:59:24;;;;;;;16.80;1.20;;;;;;;3.84;100.00;99801.44;5021507;28;20437;-86
2023/01/15 05:01:49;;;;;;;8.95;0.85;;;;;;;3.85;100.00;99795.09;5006136;28;20026;-86
2023/01/15 05:04:15;;;;;;;14.15;1.10;;;;;;;3.95;100.00;99816.50;5025942;28;20025;-86
2023/01/15 05:06:41;;;;;;;7.28;0.60;;;;;;;3.95;100.00;99808.56;4988902;28;20067;-86
2023/01/15 05:09:06;;;;;;;9.87;0.90;;;;;;;3.86;100.00;99791.41;5012074;28;20021;-85
2023/01/15 05:11:37;;;;;;;15.17;1.30;;;;;;;3.89;100.00;99812.16;5013152;28;20041;-86
2023/01/15 05:14:02;;;;;;;12.43;1.45;;;;;;;3.97;100.00;99803.81;4993593;28;20121;-86
2023/01/15 05:16:29;;;;;;;12.60;1.05;;;;;;;3.93;100.00;99816.72;4993454;28;20050;-86
2023/01/15 05:18:58;;;;;;;14.33;0.90;;;;;;;3.96;100.00;99820.78;5007826;28;20072;-86
2023/01/15 05:21:30;;;;;;;15.30;1.23;;;;;;;3.95;100.00;99829.75;5007911;28;20777;-86
2023/01/15 05:23:57;;;;;;;15.77;2.22;;;;;;;3.92;100.00;99809.03;5007611;28;20433;-86
2023/01/15 05:26:23;;;;;;;15.18;1.55;;;;;;;3.89;100.00;99809.50;5008141;28;20030;-86
2023/01/15 05:28:51;;;;;;;9.32;0.88;;;;;;;3.73;100.00;99764.19;5018359;28;20113;-86
2023/01/15 05:31:18;;;;;;;8.70;0.80;;;;;;;3.84;100.00;99804.09;5024903;28;20030;-85
2023/01/15 05:33:46;;;;;;;12.13;1.37;;;;;;;3.88;100.00;99810.53;5032276;28;20022;-86
2023/01/15 05:36:14;;;;;;;15.87;1.47;;;;;;;3.88;100.00;99807.88;5025114;28;20773;-86
2023/01/15 05:38:40;;;;;;;10.95;0.85;;;;;;;3.82;100.00;99790.31;5009578;28;20029;-85
2023/01/15 05:43:52;;;;;;;14.40;1.13;;;;;;;3.85;100.00;99800.41;5033232;28;20117;-86
2023/01/15 05:46:18;;;;;;;13.73;1.87;;;;;;;3.84;100.00;99804.91;4998683;28;20061;-89
2023/01/15 05:48:45;;;;;;;8.25;1.10;;;;;;;3.73;100.00;99774.00;5013172;28;20033;-88
2023/01/15 05:51:10;;;;;;;13.87;0.90;;;;;;;3.82;100.00;99804.34;5013760;28;20040;-86
2023/01/15 06:01:34;;;;;;;14.20;1.07;;;;;;;3.67;100.00;99775.72;6116967;22;21445;-87
2023/01/15 06:04:04;;;;;;;8.07;1.00;;;;;;;3.87;100.00;99796.50;5012576;28;20038;-88
2023/01/15 06:06:51;;;;;;;12.15;1.15;;;;;;;3.64;100.00;99741.78;5013685;28;20025;-90
2023/01/15 06:09:23;;;;;;;11.27;1.20;;;;;;;3.67;100.00;99743.91;4994642;28;20038;-89
2023/01/15 06:12:05;;;;;;;11.35;1.40;;;;;;;4.00;100.00;99787.44;5020605;28;20044;-91
2023/01/15 06:14:31;;;;;;;10.63;1.17;;;;;;;3.86;100.00;99765.72;5012976;28;20030;-90
2023/01/15 06:16:59;;;;;;;7.33;0.77;;;;;;;4.09;100.00;99799.25;5014293;28;20474;-89
2023/01/15 06:19:29;;;;;;;14.35;1.63;;;;;;;4.12;100.00;99802.47;5014943;28;20044;-90
2023/01/15 06:22:12;;;;;;;11.00;1.13;;;;;;;4.10;100.00;99805.38;4998088;28;20065;-89
2023/01/15 06:24:37;;;;;;;13.05;1.08;;;;;;;4.15;100.00;99820.56;4991398;23;20046;-90
2023/01/15 06:27:03;;;;;;;20.43;1.57;;;;;;;4.02;100.00;99803.09;5013909;28;20032;-90
2023/01/15 06:29:28;;;;;;;12.77;1.40;;;;;;;4.15;100.00;99804.66;4980255;28;20389;-91
2023/01/15 06:31:55;;;;;;;10.63;1.43;;;;;;;4.14;100.00;99811.00;5015115;28;20641;-89
2023/01/15 06:34:21;;;;;;;8.10;1.13;;;;;;;4.05;100.00;99827.28;5013880;28;20050;-90
2023/01/15 06:36:49;;;;;;;10.97;1.20;;;;;;;3.94;100.00;99833.44;5015242;28;20030;-90
2023/01/15 06:39:15;;;;;;;13.10;0.90;;;;;;;3.88;100.00;99824.59;5016060;28;20037;-89
2023/01/15 06:47:19;;;;;;;9.55;1.30;;;;;;;3.72;100.00;99809.47;5018619;28;20061;-90
2023/01/15 06:49:48;;;;;;;8.13;0.80;;;;;;;3.50;100.00;99791.59;5022215;28;20048;-91
2023/01/15 06:52:14;;;;;;;14.23;1.40;;;;;;;3.58;100.00;99816.91;5028607;28;20795;-91
2023/01/15 06:54:39;;;;;;;9.40;1.20;;;;;;;3.61;100.00;99821.72;5014777;28;20034;-90
2023/01/15 06:57:04;;;;;;;13.30;1.33;;;;;;;3.52;100.00;99818.66;5001972;28;20033;-91
2023/01/15 06:59:30;;;;;;;7.23;0.70;;;;;;;3.50;100.00;99826.03;5002021;28;20026;-90
2023/01/15 07:01:56;;;;;;;9.73;0.90;;;;;;;3.41;100.00;99830.88;5027970;28;20038;-91
2023/01/15 07:04:25;;;;;;;9.97;0.90;;;;;;;3.38;100.00;99849.09;5032559;28;20029;-90
2023/01/15 07:06:51;;;;;;;10.55;0.75;;;;;;;3.14;100.00;99804.91;5019772;28;20057;-91
2023/01/15 07:09:24;;;;;;;11.68;1.17;;;;;;;3.19;100.00;99817.47;5010579;28;20022;-91
2023/01/15 07:11:51;;;;;;;15.13;1.23;;;;;;;3.25;100.00;99827.09;5028542;28;20392;-90
2023/01/15 07:14:30;;;;;;;6.17;0.60;;;;;;;3.19;100.00;99817.47;5000722;28;20288;-91
2023/01/15 07:16:59;;;;;;;17.10;1.02;;;;;;;3.29;100.00;99848.63;4997082;28;20042;-90
2023/01/15 07:19:31;;;;;;;9.07;1.00;;;;;;;2.97;100.00;99806.66;5012610;28;20025;-90
2023/01/15 07:22:03;;;;;;;14.43;1.17;;;;;;;2.95;100.00;99814.84;5012470;28;20037;-89
2023/01/15 07:24:28;;;;;;;9.07;1.00;;;;;;;3.12;100.00;99843.25;5013685;28;20034;-91
2023/01/15 07:26:53;;;;;;;13.37;1.13;;;;;;;3.14;100.00;99841.19;5011626;28;20033;-87
2023/01/15 07:29:19;;;;;;;11.27;1.57;;;;;;;3.32;100.00;99859.56;5011309;28;20109;-88
2023/01/15 07:31:44;;;;;;;11.47;1.03;;;;;;;3.45;100.00;99863.81;4993487;28;20049;-89
2023/01/15 07:34:10;;;;;;;7.53;1.07;;;;;;;3.54;100.00;99866.91;4998224;28;20308;-89
2023/01/15 07:36:37;;;;;;;8.03;0.90;;;;;;;3.49;100.00;99851.69;5015016;28;20025;-89
2023/01/15 07:39:05;;;;;;;11.43;1.13;;;;;;;3.54;100.00;99858.13;5031785;22;20033;-89
2023/01/15 07:49:47;;;;;;;8.70;1.00;;;;;;;3.58;100.00;99851.34;5029586;28;20334;-88
2023/01/15 07:52:20;;;;;;;6.97;1.00;;;;;;;3.71;100.00;99856.34;5030341;28;20037;-90
2023/01/15 07:54:48;;;;;;;8.82;0.90;;;;;;;3.79;100.00;99877.19;5029612;28;20022;-89
2023/01/15 07:57:20;;;;;;;8.93;0.73;;;;;;;3.76;100.00;99875.00;5033074;28;20029;-90
2023/01/15 07:59:45;;;;;;;10.07;0.80;;;;;;;3.78;100.00;99883.53;5030919;28;20026;-90
2023/01/15 08:02:11;;;;;;;7.97;1.10;;;;;;;3.77;100.00;99887.22;5030597;28;21180;-89
2023/01/15 08:04:53;;;;;;;8.73;0.80;;;;;;;3.81;100.00;99876.16;5013932;28;20136;-91
2023/01/15 08:07:19;;;;;;;4.65;0.90;;;;;;;3.47;100.00;99837.88;5030797;28;20420;-91
2023/01/15 08:09:47;;;;;;;7.53;1.07;;;;;;;3.47;100.00;99851.13;5004085;28;20025;-90
2023/01/15 08:15:12;;;;;;;9.67;1.30;;;;;;;3.39;100.00;99875.34;5024157;28;20068;-91
2023/01/15 08:17:39;;;;;;;9.53;1.10;;;;;;;3.44;100.00;99887.88;5005962;28;21025;-89
2023/01/15 08:20:10;;;;;;;9.25;0.98;;;;;;;3.29;100.00;99878.56;5009114;28;20072;-89
2023/01/15 08:22:37;;;;;;;6.05;0.95;;;;;;;3.27;100.00;99887.78;5018457;28;20026;-90
2023/01/15 08:25:03;;;;;;;6.95;0.70;;;;;;;3.27;100.00;99893.88;5016516;28;20048;-90
2023/01/15 08:27:29;;;;;;;5.27;0.60;;;;;;;3.22;100.00;99888.47;5031912;28;20033;-89
2023/01/15 08:29:55;;;;;;;9.07;0.70;;;;;;;3.27;100.00;99903.69;5036338;28;20021;-89
2023/01/15 08:32:23;;;;;;;6.00;0.60;;;;;;;3.14;100.00;99894.91;5055537;28;20021;-89
2023/01/15 08:34:48;;;;;;;6.15;0.75;;;;;;;3.23;100.00;99897.22;5037165;28;20030;-90
2023/01/15 08:37:13;;;;;;;9.97;0.70;;;;;;;3.01;100.00;99861.53;5032105;28;20061;-89
2023/01/15 08:39:39;;;;;;;9.27;1.00;;;;;;;3.26;100.00;99896.78;5053570;28;20029;-88
2023/01/15 08:42:05;;;;;;;6.90;0.68;;;;;;;3.23;100.00;99900.66;5030183;28;20029;-90
2023/01/15 08:44:32;;;;;;;12.03;1.20;;;;;;;3.29;100.00;99889.16;5031170;28;20108;-90
2023/01/15 08:46:57;;;;;;;5.60;0.90;;;;;;;3.31;100.00;99894.22;5030210;28;20281;-90
2023/01/15 08:49:23;;;;;;;8.73;1.08;;;;;;;3.33;100.00;99892.97;5028647;28;20490;-90
2023/01/15 08:51:50;;;;;;;6.97;0.90;;;;;;;3.38;100.00;99891.47;5013665;28;20033;-91
2023/01/15 08:54:19;;;;;;;8.35;0.73;;;;;;;3.35;100.00;99887.41;5011240;28;20227;-91
2023/01/15 08:56:46;;;;;;;6.88;1.02;;;;;;;3.27;100.00;99877.19;5023179;28;20049;-90
2023/01/15 08:59:12;;;;;;;10.87;1.20;;;;;;;3.41;100.00;99888.31;5018585;28;20681;-91
2023/01/15 09:01:37;;;;;;;12.32;1.50;;;;;;;3.38;100.00;99873.72;5030971;28;20021;-90
2023/01/15 09:04:05;;;;;;;8.33;1.00;;;;;;;3.46;100.00;99885.78;5024619;28;20075;-89
2023/01/15 09:06:31;;;;;;;6.30;0.57;;;;;;;3.43;100.00;99878.31;5027944;28;20576;-90
2023/01/15 09:09:00;;;;;;;16.88;2.25;;;;;;;3.53;100.00;99865.28;5010693;28;20032;-91
2023/01/15 09:11:50;;;;;;;10.80;1.00;;;;;;;3.13;100.00;99819.19;5033127;28;20056;-92
2023/01/15 09:14:16;;;;;;;11.43;1.13;;;;;;;3.45;100.00;99857.69;5026217;28;20033;-91
2023/01/15 09:26:17;;;;;;;6.40;0.63;;;;;;;3.71;100.00;99872.25;5857723;22;20064;-91
2023/01/15 09:28:55;;;;;;;6.07;0.90;;;;;;;3.82;100.00;99875.91;4969078;28;20044;-91
2023/01/15 09:31:32;;;;;;;12.05;1.00;;;;;;;3.67;100.00;99807.50;4994735;28;20029;-92
2023/01/15 09:34:06;;;;;;;14.02;0.90;;;;;;;3.80;100.00;99814.38;5028903;28;20082;-92
2023/01/15 09:36:33;;;;;;;14.83;1.10;;;;;;;4.17;100.00;99872.28;5026229;28;20090;-92
2023/01/15 09:39:07;;;;;;;6.17;0.80;;;;;;;4.26;100.00;99854.16;5001892;28;20392;-92
2023/01/15 09:42:21;;;;;;;13.40;1.23;;;;;;;4.29;100.00;99840.41;5020623;28;20026;-91
2023/01/15 09:44:55;;;;;;;8.85;1.00;;;;;;;4.66;100.00;99876.25;5018305;28;20034;-93
2023/01/15 09:48:16;;;;;;;;;;;;;;;;;;;;;
2023/01/15 09:50:54;;;;;;;6.90;0.80;;;;;;;4.59;100.00;99886.25;5024492;28;20080;-93
2023/01/15 09:53:54;;;;;;;4.50;0.70;;;;;;;4.48;100.00;99893.25;5006813;28;20034;-93
2023/01/15 09:56:31;;;;;;;7.17;0.60;;;;;;;4.32;100.00;99871.75;4932124;29;20299;-93
2023/01/15 09:58:59;;;;;;;8.93;1.15;;;;;;;4.23;100.00;99857.28;5017648;28;20045;-93
2023/01/15 10:01:29;;;;;;;9.18;1.00;;;;;;;4.31;100.00;99864.84;5025804;28;20018;-92
2023/01/15 10:04:34;;;;;;;8.35;0.70;;;;;;;4.57;100.00;99883.03;5017322;28;20026;-93
2023/01/15 10:07:11;;;;;;;10.60;0.90;;;;;;;4.59;100.00;99888.91;5020744;28;20045;-92
2023/01/15 10:09:39;;;;;;;10.60;0.97;;;;;;;4.76;100.00;99895.03;5026243;28;20548;-92
2023/01/15 10:12:34;;;;;;;7.22;0.90;;;;;;;4.84;100.00;99901.78;5015110;28;20036;-93
2023/01/15 10:15:18;;;;;;;4.93;0.90;;;;;;;4.88;100.00;99904.75;5015298;28;20026;-93
2023/01/15 10:17:55;;;;;;;6.22;0.73;;;;;;;5.00;100.00;99910.78;5013402;28;20042;-93
2023/01/15 10:20:43;;;;;;;9.88;0.98;;;;;;;5.10;100.00;99912.78;5010963;28;20350;-91
2023/01/15 10:23:45;;;;;;;11.33;1.20;;;;;;;5.02;100.00;99915.84;5012212;28;20041;-92
2023/01/15 10:26:16;;;;;;;5.57;0.97;;;;;;;4.99;100.00;99907.31;5007092;28;20285;-92
2023/01/15 10:29:21;;;;;;;11.40;1.02;;;;;;;4.95;100.00;99905.38;5019277;28;20026;-93
2023/01/15 10:31:58;;;;;;;9.20;0.95;;;;;;;5.02;100.00;99905.22;5022597;28;20033;-93
2023/01/15 10:37:45;;;;;;;10.07;0.98;;;;;;;5.03;100.00;99901.50;4944459;29;20042;-92
2023/01/15 10:43:23;;;;;;;7.90;1.20;;;;;;;5.12;100.00;99908.81;5218739;22;20358;-93
2023/01/15 10:46:09;;;;;;;10.50;0.88;;;;;;;5.23;100.00;99901.81;5026305;28;20034;-92
2023/01/15 10:49:03;;;;;;;7.85;1.30;;;;;;;5.30;100.00;99907.72;5010763;28;20049;-88
2023/01/15 10:55:38;;;;;;;17.73;1.30;;;;;;;5.65;100.00;99886.41;5019602;28;20048;-91
2023/01/15 11:01:26;;;;;;;8.23;1.00;;;;;;;5.82;98.60;99879.16;5014920;28;20284;-94
2023/01/15 11:03:53;;;;;;;5.40;1.00;;;;;;;5.78;99.61;99880.69;5021142;28;20049;-94
2023/01/15 11:06:53;;;;;;;4.75;0.73;;;;;;;5.54;100.00;99848.28;5000715;28;20046;-93
2023/01/15 11:22:27;;;;;;;7.57;0.70;;;;;;;5.99;98.65;99918.94;5212711;22;20064;-94
2023/01/15 11:24:56;;;;;;;5.40;0.70;;;;;;;6.00;98.13;99919.78;5023621;28;20033;-92
2023/01/15 11:33:47;;;;;;;3.08;0.60;;;;;;;6.55;96.44;99920.59;5011021;28;20065;-93
2023/01/15 11:36:39;;;;;;;4.80;0.40;;;;;;;6.47;94.19;99903.22;5026525;28;20046;-92
2023/01/15 11:39:27;;;;;;;3.50;0.60;;;;;;;6.69;94.23;99905.00;4999655;28;20281;-95
2023/01/15 11:51:11;;;;;;;1.65;0.52;;;;;;;6.67;93.04;99915.09;4996702;28;20500;-95
2023/01/15 11:53:44;;;;;;;3.47;0.60;;;;;;;6.65;91.54;99920.69;5013658;28;20041;-93
2023/01/15 11:56:26;;;;;;;6.47;0.80;;;;;;;6.60;93.24;99901.19;5015377;28;20296;-95
2023/01/15 11:59:16;;;;;;;6.47;1.08;;;;;;;6.67;92.94;99901.78;5020363;28;20034;-94
2023/01/15 12:05:29;;;;;;;6.03;0.80;;;;;;;7.17;89.81;99904.25;4988789;28;20086;-93
2023/01/15 12:08:03;;;;;;;7.78;0.85;;;;;;;7.30;89.97;99914.47;5012873;22;20057;-94
2023/01/15 12:16:16;;;;;;;3.33;0.50;;;;;;;6.75;93.18;99919.97;5048978;22;20096;-93
2023/01/15 12:19:21;;;;;;;7.57;0.80;;;;;;;6.73;93.81;99914.09;5058457;28;20056;-93
2023/01/15 12:22:30;;;;;;;6.47;0.82;;;;;;;6.82;93.84;99901.91;5016493;28;20030;-95
2023/01/15 12:31:15;;;;;;;1.53;0.40;;;;;;;6.70;92.47;99906.59;5095045;28;20310;-91
2023/01/15 13:05:49;;;;;;;;;;;;;;;;;;;;;
2023/01/15 13:08:55;;;;;;;2.63;0.63;;;;;;;6.78;93.25;99906.13;5059871;22;20077;-91
2023/01/15 13:11:45;;;;;;;3.80;0.93;;;;;;;6.85;91.10;99897.13;5145293;22;20037;-93
2023/01/15 13:17:40;;;;;;;4.13;0.60;;;;;;;6.58;90.99;99850.06;5044558;28;20048;-95
2023/01/15 13:20:54;;;;;;;6.33;0.90;;;;;;;6.89;90.97;99892.91;5027573;28;20049;-93
2023/01/15 13:23:45;;;;;;;3.38;0.60;;;;;;;6.75;90.29;99885.34;5024229;28;20033;-92
2023/01/15 13:26:25;;;;;;;4.45;0.85;;;;;;;6.31;92.14;99856.25;5025683;28;20037;-93
2023/01/15 13:29:20;;;;;;;2.10;0.65;;;;;;;6.54;92.60;99881.72;5119363;22;20056;-94
2023/01/15 13:32:01;;;;;;;3.38;0.60;;;;;;;6.65;90.63;99883.41;5026962;28;20021;-95
2023/01/15 13:35:02;;;;;;;8.93;1.00;;;;;;;6.50;91.19;99857.47;5043209;28;20052;-94
2023/01/15 13:37:56;;;;;;;4.10;0.70;;;;;;;6.81;91.28;99896.84;5046857;28;20699;-95
2023/01/15 13:40:53;;;;;;;;;;;;;;;;;;;;;
2023/01/15 13:43:46;;;;;;;6.07;0.70;;;;;;;7.12;88.02;99905.03;4981695;28;20128;-93
2023/01/15 13:46:20;;;;;;;6.13;0.70;;;;;;;6.97;87.46;99885.22;5044512;28;20038;-93
2023/01/15 13:48:58;;;;;;;4.45;0.90;;;;;;;6.79;88.59;99888.31;5024691;28;20026;-94
2023/01/15 13:51:37;;;;;;;3.22;0.73;;;;;;;6.90;89.74;99910.47;5090218;22;20072;-93
2023/01/15 13:57:40;;;;;;;4.50;0.67;;;;;;;6.95;89.59;99911.31;5027405;28;20292;-93
2023/01/15 14:00:31;;;;;;;2.40;0.80;;;;;;;6.82;89.62;99904.56;5036955;28;20082;-94
2023/01/15 14:06:58;;;;;;;4.25;0.85;;;;;;;6.75;91.46;99919.16;5038314;28;20057;-94
2023/01/15 14:09:40;;;;;;;3.80;0.60;;;;;;;6.65;89.70;99887.91;5017425;28;20026;-93
2023/01/15 14:12:51;;;;;;;4.78;1.15;;;;;;;6.55;90.08;99877.22;4968838;28;20014;-94
2023/01/15 14:15:22;;;;;;;6.77;1.00;;;;;;;6.66;88.88;99900.19;5019666;28;20030;-94
2023/01/15 14:18:07;;;;;;;5.65;1.00;;;;;;;6.59;91.89;99927.00;5031371;28;20110;-94
2023/01/15 14:21:28;;;;;;;6.40;0.90;;;;;;;6.43;91.80;99886.16;5034100;28;20022;-94
2023/01/15 14:24:32;;;;;;;4.85;0.90;;;;;;;6.63;91.00;99917.47;4979816;28;20027;-96
2023/01/15 14:33:43;;;;;;;4.13;1.00;;;;;;;6.53;91.76;99932.56;5964705;22;20649;-94
2023/01/15 14:39:00;;;;;;;6.80;1.00;;;;;;;6.11;94.21;99918.84;5916566;22;20103;-94
2023/01/15 14:41:31;;;;;;;5.75;1.02;;;;;;;5.98;95.45;99922.66;5052695;28;20033;-94
2023/01/15 14:44:01;;;;;;;9.85;0.90;;;;;;;5.70;96.38;99911.19;5049637;28;20052;-94
2023/01/15 14:49:17;;;;;;;3.70;0.80;;;;;;;5.43;96.41;99884.53;5098173;22;20323;-93
2023/01/15 14:52:01;;;;;;;6.93;0.95;;;;;;;5.58;98.00;99932.56;5028056;28;20030;-94